createdAt,value
2023-10-19T00:02:20.931Z,3.50
2023-10-19T00:04:47.988Z,4.63
2023-10-19T00:07:17.390Z,4.03
2023-10-19T00:09:47.732Z,4.38
2023-10-19T00:12:17.087Z,4.88
2023-10-19T00:14:43.988Z,4.35
2023-10-19T00:17:12.806Z,4.68
2023-10-19T00:19:59.432Z,4.67
2023-10-19T00:22:26.409Z,4.72
2023-10-19T00:24:53.337Z,4.72
2023-10-19T00:27:23.499Z,5.53
2023-10-19T00:29:50.959Z,4.50
2023-10-19T00:32:20.807Z,4.50
2023-10-19T00:34:53.333Z,5.32
2023-10-19T00:37:28.411Z,5.30
2023-10-19T00:39:56.917Z,5.10
2023-10-19T00:42:32.461Z,5.40
2023-10-19T00:45:05.901Z,4.70
2023-10-19T00:47:41.392Z,5.47
2023-10-19T00:50:16.033Z,5.00
2023-10-19T00:52:51.101Z,5.03
2023-10-19T00:55:22.187Z,4.85
2023-10-19T00:57:50.644Z,5.10
2023-10-19T01:00:31.930Z,6.07
2023-10-19T01:03:01.702Z,4.97
2023-10-19T01:05:37.143Z,4.95
2023-10-19T01:08:24.772Z,5.40
2023-10-19T01:10:54.594Z,5.57
2023-10-19T01:13:35.649Z,5.00
2023-10-19T01:16:02.521Z,5.53
2023-10-19T01:18:30.793Z,5.78
2023-10-19T01:20:57.698Z,5.57
2023-10-19T01:23:27.474Z,5.73
2023-10-19T01:26:01.307Z,6.00
2023-10-19T01:28:42.749Z,5.82
2023-10-19T01:31:29.856Z,6.10
2023-10-19T01:34:02.528Z,6.50
2023-10-19T01:36:29.628Z,5.83
2023-10-19T01:39:02.090Z,6.20
2023-10-19T01:41:32.350Z,6.10
2023-10-19T01:44:05.950Z,6.13
2023-10-19T01:46:38.017Z,5.90
2023-10-19T01:49:06.183Z,5.67
2023-10-19T01:51:39.389Z,6.32
2023-10-19T01:54:09.947Z,6.95
2023-10-19T01:56:39.128Z,5.85
2023-10-19T01:59:06.851Z,7.47
2023-10-19T02:01:34.309Z,6.47
2023-10-19T02:04:05.166Z,6.32
2023-10-19T02:06:36.976Z,7.07
2023-10-19T02:09:23.327Z,5.80
2023-10-19T02:11:54.532Z,6.50
2023-10-19T02:14:21.768Z,6.57
2023-10-19T02:17:00.748Z,5.90
2023-10-19T02:19:30.352Z,6.40
2023-10-19T02:22:13.310Z,6.18
2023-10-19T02:24:42.768Z,6.22
2023-10-19T02:27:13.621Z,5.90
2023-10-19T02:29:47.867Z,5.93
2023-10-19T02:32:14.989Z,5.97
2023-10-19T02:34:42.530Z,5.80
2023-10-19T02:37:09.353Z,4.85
2023-10-19T02:39:36.409Z,5.63
2023-10-19T02:42:04.261Z,5.65
2023-10-19T02:44:32.216Z,5.57
2023-10-19T02:47:00.523Z,4.68
2023-10-19T02:49:31.021Z,5.38
2023-10-19T02:52:05.061Z,5.20
2023-10-19T02:54:35.378Z,5.07
2023-10-19T02:57:03.843Z,5.28
2023-10-19T02:59:30.696Z,5.00
2023-10-19T03:04:37.676Z,4.20
2023-10-19T03:07:05.406Z,5.30
2023-10-19T03:09:37.396Z,4.97
2023-10-19T03:12:05.595Z,4.55
2023-10-19T03:14:34.106Z,5.18
2023-10-19T03:17:02.014Z,5.27
2023-10-19T03:19:29.352Z,4.75
2023-10-19T03:21:57.356Z,3.95
2023-10-19T03:24:25.002Z,4.35
2023-10-19T03:26:52.148Z,4.80
2023-10-19T03:29:32.818Z,4.20
2023-10-19T03:32:03.023Z,4.55
2023-10-19T03:34:34.779Z,4.60
2023-10-19T03:37:06.737Z,4.55
2023-10-19T03:39:35.670Z,4.10
2023-10-19T03:42:02.650Z,4.00
2023-10-19T03:44:40.796Z,4.07
2023-10-19T03:47:12.939Z,4.20
2023-10-19T03:49:41.399Z,4.10
2023-10-19T03:52:12.171Z,4.20
2023-10-19T03:54:45.505Z,4.27
2023-10-19T03:57:20.895Z,4.15
2023-10-19T03:59:53.678Z,3.53
2023-10-19T04:02:22.665Z,3.50
2023-10-19T04:04:49.935Z,3.80
2023-10-19T04:07:23.541Z,3.40
2023-10-19T04:10:09.934Z,2.83
2023-10-19T04:12:38.982Z,3.42
2023-10-19T04:15:22.392Z,3.03
2023-10-19T04:17:54.171Z,2.45
2023-10-19T04:20:21.064Z,2.90
2023-10-19T04:22:49.703Z,2.30
2023-10-19T04:25:17.529Z,2.28
2023-10-19T04:27:44.783Z,2.67
2023-10-19T04:30:28.414Z,2.83
2023-10-19T04:32:59.050Z,2.13
2023-10-19T04:35:30.914Z,1.70
2023-10-19T04:37:58.288Z,2.10
2023-10-19T04:40:25.250Z,1.48
2023-10-19T04:42:53.447Z,1.48
2023-10-19T04:45:20.355Z,1.60
2023-10-19T04:47:48.006Z,2.10
2023-10-19T04:50:15.020Z,1.40
2023-10-19T04:52:41.930Z,1.50
2023-10-19T04:55:09.111Z,1.33
2023-10-19T04:57:36.178Z,1.13
2023-10-19T05:00:04.874Z,0.98
2023-10-19T05:02:31.910Z,1.08
2023-10-19T05:04:58.916Z,1.33
2023-10-19T05:07:25.974Z,1.00
2023-10-19T05:09:54.941Z,0.80
2023-10-19T05:12:22.833Z,1.20
2023-10-19T05:14:49.622Z,1.13
2023-10-19T05:17:16.549Z,0.80
2023-10-19T05:19:43.488Z,0.95
2023-10-19T05:22:10.722Z,0.63
2023-10-19T05:24:37.637Z,0.68
2023-10-19T05:27:05.371Z,0.82
2023-10-19T05:29:37.338Z,0.60
2023-10-19T05:32:05.180Z,0.70
2023-10-19T05:34:34.206Z,0.53
2023-10-19T05:37:03.612Z,0.70
2023-10-19T05:39:32.600Z,0.70
2023-10-19T05:42:03.081Z,0.57
2023-10-19T05:44:32.197Z,0.68
2023-10-19T05:47:03.593Z,0.40
2023-10-19T05:49:31.088Z,0.60
2023-10-19T05:51:58.272Z,0.60
2023-10-19T05:54:25.422Z,0.70
2023-10-19T05:56:54.256Z,0.60
2023-10-19T05:59:21.426Z,0.53
2023-10-19T06:01:49.287Z,0.45
2023-10-19T06:04:19.839Z,0.60
2023-10-19T06:06:50.016Z,0.55
2023-10-19T06:09:18.879Z,0.60
2023-10-19T06:11:46.703Z,0.40
2023-10-19T06:14:14.015Z,0.50
2023-10-19T06:16:41.053Z,0.50
2023-10-19T06:19:08.137Z,0.70
2023-10-19T06:21:35.567Z,0.85
2023-10-19T06:24:04.203Z,0.37
2023-10-19T06:26:31.402Z,0.63
2023-10-19T06:29:01.203Z,0.73
2023-10-19T06:31:30.216Z,1.05
2023-10-19T06:33:58.748Z,0.70
2023-10-19T06:36:26.381Z,0.90
2023-10-19T06:38:55.691Z,0.70
2023-10-19T06:41:23.552Z,0.60
2023-10-19T06:43:51.606Z,0.90
2023-10-19T06:46:18.998Z,0.80
2023-10-19T06:48:46.352Z,0.87
2023-10-19T06:51:13.386Z,0.77
2023-10-19T06:53:40.510Z,0.70
2023-10-19T06:56:08.230Z,0.45
2023-10-19T06:58:35.849Z,0.98
2023-10-19T07:01:09.096Z,0.67
2023-10-19T07:03:36.560Z,0.93
2023-10-19T07:06:08.196Z,0.88
2023-10-19T07:08:37.114Z,0.90
2023-10-19T07:11:04.562Z,0.73
2023-10-19T07:13:34.574Z,0.70
2023-10-19T07:16:02.480Z,1.10
2023-10-19T07:18:30.070Z,0.70
2023-10-19T07:21:05.054Z,0.93
2023-10-19T07:23:32.747Z,1.13
2023-10-19T07:26:03.198Z,0.50
2023-10-19T07:28:31.563Z,0.82
2023-10-19T07:31:01.294Z,0.88
2023-10-19T07:33:29.436Z,0.98
2023-10-19T07:35:56.600Z,0.80
2023-10-19T07:38:24.923Z,0.90
2023-10-19T07:40:54.545Z,0.82
2023-10-19T07:43:23.689Z,1.13
2023-10-19T07:45:51.461Z,0.90
2023-10-19T07:48:18.949Z,0.80
2023-10-19T07:50:46.015Z,0.80
2023-10-19T07:53:13.335Z,0.73
2023-10-19T07:55:40.726Z,0.82
2023-10-19T07:58:08.239Z,0.70
2023-10-19T08:00:35.812Z,0.90
2023-10-19T08:03:05.908Z,0.90
2023-10-19T08:05:35.264Z,1.00
2023-10-19T08:08:05.533Z,0.98
2023-10-19T08:10:33.381Z,0.85
2023-10-19T08:13:01.138Z,0.73
2023-10-19T08:15:30.194Z,0.80
2023-10-19T08:17:57.626Z,0.70
2023-10-19T08:20:25.695Z,0.75
2023-10-19T08:22:59.573Z,1.23
2023-10-19T08:25:43.521Z,1.17
2023-10-19T08:28:17.530Z,0.90
2023-10-19T08:30:46.474Z,0.90
2023-10-19T08:33:15.312Z,0.70
2023-10-19T08:35:42.699Z,0.70
2023-10-19T08:38:13.038Z,1.20
2023-10-19T08:40:41.391Z,0.60
2023-10-19T08:43:14.977Z,1.00
2023-10-19T08:45:43.260Z,1.23
2023-10-19T08:48:10.642Z,0.98
2023-10-19T08:50:42.715Z,0.93
2023-10-19T08:53:15.878Z,0.80
2023-10-19T08:55:50.199Z,0.90
2023-10-19T08:58:19.621Z,1.13
2023-10-19T09:00:58.383Z,0.95
2023-10-19T09:03:27.489Z,0.98
2023-10-19T09:05:55.647Z,0.87
2023-10-19T09:08:24.227Z,0.85
2023-10-19T09:10:55.873Z,0.95
2023-10-19T09:13:25.381Z,1.00
2023-10-19T09:15:57.363Z,1.15
2023-10-19T09:18:29.963Z,1.10
2023-10-19T09:21:04.039Z,1.20
2023-10-19T09:23:32.051Z,1.00
2023-10-19T09:26:08.601Z,1.25
2023-10-19T09:28:37.703Z,1.35
2023-10-19T09:31:06.032Z,1.07
2023-10-19T09:33:37.710Z,1.00
2023-10-19T09:36:14.595Z,1.08
2023-10-19T09:38:45.918Z,1.20
2023-10-19T09:41:14.340Z,1.00
2023-10-19T09:43:45.771Z,1.20
2023-10-19T09:46:17.015Z,0.95
2023-10-19T09:48:47.416Z,1.10
2023-10-19T09:51:16.987Z,0.90
2023-10-19T09:53:54.756Z,0.85
2023-10-19T09:56:43.194Z,1.30
2023-10-19T09:59:24.827Z,1.45
2023-10-19T10:02:09.768Z,1.55
2023-10-19T10:04:37.066Z,1.48
2023-10-19T10:07:07.482Z,1.35
2023-10-19T10:09:41.235Z,1.37
2023-10-19T10:12:22.714Z,1.77
2023-10-19T10:15:05.014Z,1.85
2023-10-19T10:17:36.413Z,1.30
2023-10-19T10:20:30.493Z,1.30
2023-10-19T10:23:23.031Z,1.10
2023-10-19T10:25:52.331Z,1.38
2023-10-19T10:28:24.571Z,1.33
2023-10-19T10:31:16.076Z,1.83
2023-10-19T10:33:49.967Z,1.13
2023-10-19T10:36:18.574Z,1.23
2023-10-19T10:38:47.150Z,1.38
2023-10-19T10:41:21.650Z,1.35
2023-10-19T10:43:50.982Z,1.42
2023-10-19T10:46:18.252Z,1.40
2023-10-19T10:48:45.173Z,1.30
2023-10-19T10:51:28.665Z,1.20
2023-10-19T10:53:56.261Z,1.38
2023-10-19T10:56:25.055Z,1.50
2023-10-19T10:58:52.583Z,1.42
2023-10-19T11:01:34.663Z,1.27
2023-10-19T11:04:12.270Z,1.08
2023-10-19T11:06:59.044Z,1.00
2023-10-19T11:09:26.132Z,1.05
2023-10-19T11:11:56.037Z,1.50
2023-10-19T11:14:26.879Z,1.37
2023-10-19T11:16:55.110Z,1.42
2023-10-19T11:19:23.135Z,1.08
2023-10-19T11:22:00.068Z,1.00
2023-10-19T11:24:29.988Z,1.30
2023-10-19T11:26:57.013Z,1.50
2023-10-19T11:29:23.992Z,1.35
2023-10-19T11:32:03.799Z,1.23
2023-10-19T11:34:31.989Z,0.88
2023-10-19T11:37:01.469Z,1.23
2023-10-19T11:39:29.532Z,1.20
2023-10-19T11:41:57.162Z,0.93
2023-10-19T11:44:24.138Z,0.90
2023-10-19T11:46:51.138Z,0.80
2023-10-19T11:49:18.179Z,1.20
2023-10-19T11:51:45.170Z,0.80
2023-10-19T11:54:13.814Z,1.25
2023-10-19T11:56:40.834Z,0.90
2023-10-19T11:59:08.940Z,0.65
2023-10-19T12:01:36.146Z,0.82
2023-10-19T12:04:03.426Z,0.60
2023-10-19T12:06:30.381Z,0.85
2023-10-19T12:09:00.324Z,0.85
2023-10-19T12:11:27.241Z,0.60
2023-10-19T12:13:54.905Z,1.00
2023-10-19T12:16:25.477Z,0.93
2023-10-19T12:18:53.649Z,1.10
2023-10-19T12:21:29.043Z,1.05
2023-10-19T12:23:57.797Z,0.90
2023-10-19T12:26:26.140Z,0.98
2023-10-19T12:28:55.180Z,1.23
2023-10-19T12:31:23.774Z,0.60
2023-10-19T12:33:50.813Z,1.00
2023-10-19T12:36:29.779Z,0.70
2023-10-19T12:38:56.713Z,0.75
2023-10-19T12:41:24.772Z,0.63
2023-10-19T12:44:09.557Z,0.77
2023-10-19T12:46:38.433Z,1.30
2023-10-19T12:49:09.836Z,0.70
2023-10-19T12:51:36.838Z,1.50
2023-10-19T12:54:04.903Z,0.80
2023-10-19T12:56:34.687Z,1.10
2023-10-19T12:59:01.839Z,1.17
2023-10-19T13:01:29.830Z,0.63
2023-10-19T13:03:57.045Z,0.90
2023-10-19T13:06:26.663Z,1.30
2023-10-19T13:08:53.522Z,0.80
2023-10-19T13:11:20.865Z,0.93
2023-10-19T13:13:48.264Z,1.10
2023-10-19T13:16:17.279Z,1.40
2023-10-19T13:18:45.294Z,1.13
2023-10-19T13:21:17.103Z,1.50
2023-10-19T13:23:45.574Z,0.90
2023-10-19T13:26:18.876Z,1.15
2023-10-19T13:28:47.271Z,1.10
2023-10-19T13:31:17.445Z,1.43
2023-10-19T13:33:45.611Z,1.10
2023-10-19T13:36:14.524Z,1.42
2023-10-19T13:38:42.614Z,1.55
2023-10-19T13:41:13.074Z,1.40
2023-10-19T13:43:46.044Z,1.40
2023-10-19T13:46:13.423Z,1.80
2023-10-19T13:48:41.219Z,1.70
2023-10-19T13:51:16.190Z,1.50
2023-10-19T13:53:43.515Z,1.55
2023-10-19T13:56:11.337Z,2.10
2023-10-19T13:58:39.160Z,1.38
2023-10-19T14:01:10.559Z,1.33
2023-10-19T14:03:39.332Z,1.35
2023-10-19T14:06:07.037Z,1.20
2023-10-19T14:08:34.179Z,0.90
2023-10-19T14:11:05.306Z,1.00
2023-10-19T14:13:33.102Z,0.95
2023-10-19T14:16:00.245Z,1.20
2023-10-19T14:18:29.314Z,0.80
2023-10-19T14:20:56.438Z,1.20
2023-10-19T14:23:25.953Z,1.40
2023-10-19T14:25:52.996Z,1.23
2023-10-19T14:28:20.265Z,0.95
2023-10-19T14:30:47.089Z,1.20
2023-10-19T14:33:14.017Z,1.60
2023-10-19T14:35:43.622Z,0.85
2023-10-19T14:38:13.518Z,0.98
2023-10-19T14:40:45.091Z,1.55
2023-10-19T14:43:12.182Z,1.33
2023-10-19T14:45:42.367Z,1.40
2023-10-19T14:48:11.854Z,1.10
2023-10-19T14:50:38.923Z,1.23
2023-10-19T14:53:06.095Z,1.58
2023-10-19T14:55:33.185Z,1.75
2023-10-19T14:58:00.795Z,1.77
2023-10-19T15:00:35.839Z,1.38
2023-10-19T15:03:09.106Z,1.02
2023-10-19T15:05:37.809Z,1.92
2023-10-19T15:08:06.380Z,1.50
2023-10-19T15:10:34.514Z,1.57
2023-10-19T15:13:01.921Z,1.50
2023-10-19T15:15:30.180Z,1.40
2023-10-19T15:17:57.891Z,1.33
2023-10-19T15:20:29.525Z,1.63
2023-10-19T15:22:56.707Z,1.53
2023-10-19T15:25:27.523Z,2.20
2023-10-19T15:27:55.351Z,1.90
2023-10-19T15:30:23.991Z,1.85
2023-10-19T15:32:54.914Z,1.55
2023-10-19T15:35:27.323Z,2.00
2023-10-19T15:37:58.414Z,1.90
2023-10-19T15:40:26.653Z,1.73
2023-10-19T15:42:55.325Z,1.63
2023-10-19T15:45:23.109Z,1.83
2023-10-19T15:47:54.122Z,2.07
2023-10-19T15:50:21.416Z,1.98
2023-10-19T15:52:48.421Z,2.20
2023-10-19T15:55:16.729Z,2.35
2023-10-19T15:57:43.842Z,1.88
2023-10-19T16:00:16.098Z,2.10
2023-10-19T16:02:44.282Z,1.60
2023-10-19T16:05:13.160Z,1.85
2023-10-19T16:07:41.460Z,1.80
2023-10-19T16:10:14.073Z,1.80
2023-10-19T16:12:42.192Z,1.87
2023-10-19T16:15:09.667Z,2.30
2023-10-19T16:17:38.167Z,2.08
2023-10-19T16:20:08.653Z,1.70
2023-10-19T16:22:35.835Z,2.00
2023-10-19T16:25:03.560Z,2.10
2023-10-19T16:27:30.605Z,1.60
2023-10-19T16:29:57.642Z,1.75
2023-10-19T16:32:25.143Z,1.40
2023-10-19T16:34:53.711Z,2.15
2023-10-19T16:37:23.617Z,1.80
2023-10-19T16:39:52.460Z,1.70
2023-10-19T16:42:19.411Z,2.25
2023-10-19T16:44:46.522Z,1.88
2023-10-19T16:47:13.520Z,1.70
2023-10-19T16:49:40.665Z,1.67
2023-10-19T16:52:08.685Z,2.00
2023-10-19T16:54:35.926Z,1.98
2023-10-19T16:57:02.996Z,2.10
2023-10-19T16:59:31.263Z,2.75
2023-10-19T17:01:59.240Z,1.97
2023-10-19T17:04:27.223Z,2.03
2023-10-19T17:06:54.583Z,2.88
2023-10-19T17:09:23.273Z,2.30
2023-10-19T17:11:54.035Z,2.67
2023-10-19T17:14:22.959Z,2.73
2023-10-19T17:16:51.176Z,2.80
2023-10-19T17:19:18.443Z,2.58
2023-10-19T17:21:45.438Z,2.72
2023-10-19T17:24:12.773Z,2.90
2023-10-19T17:26:40.112Z,2.67
2023-10-19T17:29:08.060Z,2.67
2023-10-19T17:31:36.982Z,2.58
2023-10-19T17:34:04.299Z,2.65
2023-10-19T17:36:31.176Z,2.25
2023-10-19T17:38:58.203Z,2.57
2023-10-19T17:43:54.199Z,2.30
2023-10-19T17:46:21.622Z,2.45
2023-10-19T17:48:48.543Z,2.35
2023-10-19T17:51:20.945Z,2.50
2023-10-19T17:53:49.019Z,2.35
2023-10-19T17:56:16.007Z,2.40
2023-10-19T17:58:43.853Z,2.70
2023-10-19T18:01:11.669Z,2.67
2023-10-19T18:03:42.770Z,2.53
2023-10-19T18:06:11.013Z,3.15
2023-10-19T18:08:39.080Z,2.78
2023-10-19T18:11:16.324Z,3.42
2023-10-19T18:13:43.344Z,3.03
2023-10-19T18:16:12.222Z,3.60
2023-10-19T18:18:41.150Z,3.78
2023-10-19T18:21:12.837Z,3.92
2023-10-19T18:23:46.193Z,3.38
2023-10-19T18:26:13.598Z,3.17
2023-10-19T18:28:44.666Z,3.20
2023-10-19T18:31:14.548Z,3.20
2023-10-19T18:33:42.397Z,3.50
2023-10-19T18:36:14.707Z,3.83
2023-10-19T18:38:42.893Z,3.58
2023-10-19T18:41:10.989Z,3.07
2023-10-19T18:43:37.981Z,3.40
2023-10-19T18:46:05.347Z,3.30
2023-10-19T18:48:32.644Z,3.42
2023-10-19T18:51:02.024Z,3.38
2023-10-19T18:53:29.788Z,3.60
2023-10-19T18:55:57.456Z,3.47
2023-10-19T18:58:26.215Z,3.50
2023-10-19T19:00:59.111Z,2.88
2023-10-19T19:03:27.076Z,3.72
2023-10-19T19:05:58.938Z,3.37
2023-10-19T19:08:27.313Z,3.70
2023-10-19T19:10:54.425Z,2.83
2023-10-19T19:13:22.516Z,3.55
2023-10-19T19:15:59.809Z,3.22
2023-10-19T19:18:26.975Z,4.00
2023-10-19T19:20:56.887Z,3.35
2023-10-19T19:23:24.120Z,3.30
2023-10-19T19:25:52.104Z,3.53
2023-10-19T19:28:19.731Z,3.63
2023-10-19T19:30:48.563Z,3.80
2023-10-19T19:33:18.245Z,4.97
2023-10-19T19:35:45.641Z,5.25
2023-10-19T19:38:13.732Z,4.20
2023-10-19T19:40:41.551Z,4.07
2023-10-19T19:43:11.782Z,3.63
2023-10-19T19:45:44.133Z,4.05
2023-10-19T19:48:14.540Z,4.03
2023-10-19T19:50:45.397Z,3.95
2023-10-19T19:53:14.814Z,3.55
2023-10-19T19:55:42.564Z,3.93
2023-10-19T19:58:12.120Z,3.58
2023-10-19T20:00:39.368Z,4.32
2023-10-19T20:03:06.539Z,3.85
2023-10-19T20:05:34.147Z,4.05
2023-10-19T20:08:05.367Z,3.77
2023-10-19T20:10:46.341Z,3.53
2023-10-19T20:13:17.537Z,3.85
2023-10-19T20:15:45.903Z,2.97
2023-10-19T20:18:13.671Z,3.78
2023-10-19T20:20:41.429Z,3.23
2023-10-19T20:23:09.166Z,3.55
2023-10-19T20:25:36.163Z,3.15
2023-10-19T20:28:06.135Z,3.55
2023-10-19T20:30:35.063Z,3.20
2023-10-19T20:33:02.603Z,3.40
2023-10-19T20:35:33.991Z,3.08
2023-10-19T20:38:01.385Z,3.22
2023-10-19T20:40:31.913Z,3.47
2023-10-19T20:42:59.745Z,3.00
2023-10-19T20:45:31.795Z,3.70
2023-10-19T20:47:58.861Z,5.03
2023-10-19T20:50:28.938Z,4.00
2023-10-19T20:52:57.586Z,3.92
2023-10-19T20:55:24.944Z,4.05
2023-10-19T20:57:52.287Z,3.70
2023-10-19T21:00:21.239Z,3.60
2023-10-19T21:02:49.052Z,3.70
2023-10-19T21:05:19.099Z,3.88
2023-10-19T21:07:50.281Z,3.65
2023-10-19T21:10:21.341Z,3.73
2023-10-19T21:12:48.250Z,4.25
2023-10-19T21:15:19.988Z,4.13
2023-10-19T21:17:51.494Z,4.13
2023-10-19T21:20:20.308Z,5.10
2023-10-19T21:22:50.239Z,4.33
2023-10-19T21:25:20.111Z,4.13
2023-10-19T21:27:50.893Z,4.70
2023-10-19T21:30:18.225Z,3.90
2023-10-19T21:32:47.707Z,4.80
2023-10-19T21:35:16.552Z,4.47
2023-10-19T21:37:44.434Z,4.35
2023-10-19T21:40:13.010Z,5.18
2023-10-19T21:42:42.530Z,5.38
2023-10-19T21:45:12.100Z,4.88
2023-10-19T21:47:40.804Z,4.93
2023-10-19T21:50:09.027Z,4.85
2023-10-19T21:52:37.020Z,5.72
2023-10-19T21:55:04.281Z,6.25
2023-10-19T21:57:34.290Z,6.53
2023-10-19T22:00:01.212Z,6.00
2023-10-19T22:02:28.223Z,5.40
2023-10-19T22:04:59.450Z,5.82
2023-10-19T22:07:28.570Z,5.80
2023-10-19T22:09:56.597Z,5.78
2023-10-19T22:12:24.899Z,5.47
2023-10-19T22:14:52.810Z,6.18
2023-10-19T22:17:19.778Z,6.65
2023-10-19T22:19:46.700Z,6.90
2023-10-19T22:22:13.574Z,6.13
2023-10-19T22:24:40.375Z,6.47
2023-10-19T22:27:07.138Z,6.68
2023-10-19T22:29:34.164Z,6.72
2023-10-19T22:32:01.173Z,6.97
2023-10-19T22:34:28.267Z,6.45
2023-10-19T22:36:55.084Z,6.60
2023-10-19T22:39:22.510Z,6.28
2023-10-19T22:41:49.924Z,6.50
2023-10-19T22:44:17.282Z,6.03
2023-10-19T22:46:45.350Z,6.60
2023-10-19T22:49:15.022Z,6.60
2023-10-19T22:51:42.122Z,6.75
2023-10-19T22:54:08.936Z,6.45
2023-10-19T22:56:36.123Z,7.22
2023-10-19T22:59:04.484Z,6.78
2023-10-19T23:01:33.665Z,6.37
2023-10-19T23:04:01.714Z,7.60
2023-10-19T23:06:30.946Z,6.72
2023-10-19T23:08:59.592Z,6.75
2023-10-19T23:11:30.542Z,8.20
2023-10-19T23:14:00.784Z,7.50
2023-10-19T23:16:30.895Z,8.27
2023-10-19T23:18:57.806Z,8.77
2023-10-19T23:21:27.720Z,7.80
2023-10-19T23:23:55.271Z,8.30
2023-10-19T23:26:22.478Z,8.63
2023-10-19T23:28:54.535Z,8.77
2023-10-19T23:31:25.002Z,8.43
2023-10-19T23:33:51.951Z,9.63
2023-10-19T23:36:18.793Z,8.88
2023-10-19T23:38:45.682Z,9.67
2023-10-19T23:41:12.809Z,9.77
2023-10-19T23:43:40.124Z,10.18
2023-10-19T23:46:09.808Z,10.35
2023-10-19T23:48:36.935Z,10.02
2023-10-19T23:51:03.792Z,10.90
2023-10-19T23:53:30.805Z,10.68
2023-10-19T23:55:57.872Z,10.90
2023-10-19T23:58:24.756Z,11.35
